sensor_id;sensor_type;location;lat;lon;timestamp;temperature;humidity
44517;DHT22;30223;17.182;-96.766;2023-07-13T00:00:47;25.20;69.10
44517;DHT22;30223;17.182;-96.766;2023-07-13T00:03:14;25.30;69.20
44517;DHT22;30223;17.182;-96.766;2023-07-13T00:05:41;25.30;69.30
44517;DHT22;30223;17.182;-96.766;2023-07-13T00:08:08;25.30;69.30
44517;DHT22;30223;17.182;-96.766;2023-07-13T00:10:40;25.20;69.30
44517;DHT22;30223;17.182;-96.766;2023-07-13T00:13:07;25.30;69.40
44517;DHT22;30223;17.182;-96.766;2023-07-13T00:15:35;25.20;69.40
44517;DHT22;30223;17.182;-96.766;2023-07-13T00:18:02;25.30;69.40
44517;DHT22;30223;17.182;-96.766;2023-07-13T00:20:29;25.30;69.40
44517;DHT22;30223;17.182;-96.766;2023-07-13T00:22:55;25.30;69.60
44517;DHT22;30223;17.182;-96.766;2023-07-13T00:25:23;25.30;68.00
44517;DHT22;30223;17.182;-96.766;2023-07-13T00:27:52;25.30;67.00
44517;DHT22;30223;17.182;-96.766;2023-07-13T00:30:19;25.20;66.40
44517;DHT22;30223;17.182;-96.766;2023-07-13T00:32:46;25.20;67.10
44517;DHT22;30223;17.182;-96.766;2023-07-13T00:35:14;25.20;61.80
44517;DHT22;30223;17.182;-96.766;2023-07-13T00:37:41;25.10;62.40
44517;DHT22;30223;17.182;-96.766;2023-07-13T00:40:11;25.10;63.60
44517;DHT22;30223;17.182;-96.766;2023-07-13T00:42:39;25.10;61.60
44517;DHT22;30223;17.182;-96.766;2023-07-13T00:47:39;25.00;59.70
44517;DHT22;30223;17.182;-96.766;2023-07-13T00:50:12;25.00;61.20
44517;DHT22;30223;17.182;-96.766;2023-07-13T00:52:44;25.00;59.20
44517;DHT22;30223;17.182;-96.766;2023-07-13T00:55:13;25.00;60.10
44517;DHT22;30223;17.182;-96.766;2023-07-13T00:57:41;25.00;61.60
44517;DHT22;30223;17.182;-96.766;2023-07-13T01:00:09;25.00;60.60
44517;DHT22;30223;17.182;-96.766;2023-07-13T01:02:39;25.00;60.20
44517;DHT22;30223;17.182;-96.766;2023-07-13T01:05:14;25.00;59.80
44517;DHT22;30223;17.182;-96.766;2023-07-13T01:07:42;25.00;58.60
44517;DHT22;30223;17.182;-96.766;2023-07-13T01:10:11;25.00;58.60
44517;DHT22;30223;17.182;-96.766;2023-07-13T01:12:38;25.00;59.50
44517;DHT22;30223;17.182;-96.766;2023-07-13T01:15:32;25.00;56.00
44517;DHT22;30223;17.182;-96.766;2023-07-13T01:17:52;25.00;54.30
44517;DHT22;30223;17.182;-96.766;2023-07-13T01:20:21;24.90;52.80
44517;DHT22;30223;17.182;-96.766;2023-07-13T01:22:48;24.80;52.60
44517;DHT22;30223;17.182;-96.766;2023-07-13T01:25:15;24.80;52.20
44517;DHT22;30223;17.182;-96.766;2023-07-13T01:27:42;24.80;52.60
44517;DHT22;30223;17.182;-96.766;2023-07-13T01:30:09;24.80;50.30
44517;DHT22;30223;17.182;-96.766;2023-07-13T01:32:36;24.80;51.50
44517;DHT22;30223;17.182;-96.766;2023-07-13T01:35:04;24.70;49.50
44517;DHT22;30223;17.182;-96.766;2023-07-13T01:37:31;24.70;47.60
44517;DHT22;30223;17.182;-96.766;2023-07-13T01:39:59;24.70;46.80
44517;DHT22;30223;17.182;-96.766;2023-07-13T01:42:26;24.70;47.30
44517;DHT22;30223;17.182;-96.766;2023-07-13T01:44:54;24.60;47.90
44517;DHT22;30223;17.182;-96.766;2023-07-13T01:47:23;24.60;48.40
44517;DHT22;30223;17.182;-96.766;2023-07-13T01:49:50;24.70;47.60
44517;DHT22;30223;17.182;-96.766;2023-07-13T01:52:18;24.60;49.70
44517;DHT22;30223;17.182;-96.766;2023-07-13T01:54:45;24.70;50.40
44517;DHT22;30223;17.182;-96.766;2023-07-13T01:57:11;24.70;51.20
44517;DHT22;30223;17.182;-96.766;2023-07-13T01:59:38;24.70;52.20
44517;DHT22;30223;17.182;-96.766;2023-07-13T02:02:05;24.70;53.40
44517;DHT22;30223;17.182;-96.766;2023-07-13T02:04:32;24.80;53.80
44517;DHT22;30223;17.182;-96.766;2023-07-13T02:06:59;24.80;54.50
44517;DHT22;30223;17.182;-96.766;2023-07-13T02:09:26;24.80;54.70
44517;DHT22;30223;17.182;-96.766;2023-07-13T02:11:53;24.80;55.30
44517;DHT22;30223;17.182;-96.766;2023-07-13T02:14:20;24.80;55.50
44517;DHT22;30223;17.182;-96.766;2023-07-13T02:16:47;24.80;55.60
44517;DHT22;30223;17.182;-96.766;2023-07-13T02:19:14;24.80;56.20
44517;DHT22;30223;17.182;-96.766;2023-07-13T02:21:41;24.80;56.30
44517;DHT22;30223;17.182;-96.766;2023-07-13T02:24:08;24.80;56.80
44517;DHT22;30223;17.182;-96.766;2023-07-13T02:26:35;24.80;57.00
44517;DHT22;30223;17.182;-96.766;2023-07-13T02:29:02;24.80;57.20
44517;DHT22;30223;17.182;-96.766;2023-07-13T02:31:29;24.80;57.50
44517;DHT22;30223;17.182;-96.766;2023-07-13T02:33:57;24.80;57.40
44517;DHT22;30223;17.182;-96.766;2023-07-13T02:36:24;24.80;56.00
44517;DHT22;30223;17.182;-96.766;2023-07-13T02:38:50;24.80;56.80
44517;DHT22;30223;17.182;-96.766;2023-07-13T02:41:17;24.80;56.60
44517;DHT22;30223;17.182;-96.766;2023-07-13T02:43:44;24.80;56.30
44517;DHT22;30223;17.182;-96.766;2023-07-13T02:46:11;24.80;56.50
44517;DHT22;30223;17.182;-96.766;2023-07-13T02:48:39;24.80;56.20
44517;DHT22;30223;17.182;-96.766;2023-07-13T02:51:06;24.80;55.50
44517;DHT22;30223;17.182;-96.766;2023-07-13T02:53:34;24.70;55.60
44517;DHT22;30223;17.182;-96.766;2023-07-13T02:56:02;24.70;56.30
44517;DHT22;30223;17.182;-96.766;2023-07-13T02:58:29;24.70;55.40
44517;DHT22;30223;17.182;-96.766;2023-07-13T03:00:57;24.70;55.90
44517;DHT22;30223;17.182;-96.766;2023-07-13T03:03:24;24.70;56.60
44517;DHT22;30223;17.182;-96.766;2023-07-13T03:06:01;24.70;57.20
44517;DHT22;30223;17.182;-96.766;2023-07-13T03:08:29;24.70;57.90
44517;DHT22;30223;17.182;-96.766;2023-07-13T03:11:14;24.70;58.10
44517;DHT22;30223;17.182;-96.766;2023-07-13T03:13:41;24.70;58.20
44517;DHT22;30223;17.182;-96.766;2023-07-13T03:16:09;24.70;58.40
44517;DHT22;30223;17.182;-96.766;2023-07-13T03:18:37;24.70;58.50
44517;DHT22;30223;17.182;-96.766;2023-07-13T03:21:05;24.70;58.80
44517;DHT22;30223;17.182;-96.766;2023-07-13T03:23:32;24.70;58.60
44517;DHT22;30223;17.182;-96.766;2023-07-13T03:26:19;24.60;58.40
44517;DHT22;30223;17.182;-96.766;2023-07-13T03:28:47;24.60;58.80
44517;DHT22;30223;17.182;-96.766;2023-07-13T03:31:18;24.60;58.80
44517;DHT22;30223;17.182;-96.766;2023-07-13T03:33:45;24.60;58.30
44517;DHT22;30223;17.182;-96.766;2023-07-13T03:36:22;24.60;58.70
44517;DHT22;30223;17.182;-96.766;2023-07-13T03:38:51;24.60;59.10
44517;DHT22;30223;17.182;-96.766;2023-07-13T03:41:19;24.60;59.20
44517;DHT22;30223;17.182;-96.766;2023-07-13T03:43:46;24.60;59.40
44517;DHT22;30223;17.182;-96.766;2023-07-13T03:46:15;24.60;59.50
44517;DHT22;30223;17.182;-96.766;2023-07-13T03:48:43;24.60;59.30
44517;DHT22;30223;17.182;-96.766;2023-07-13T03:51:11;24.60;59.70
44517;DHT22;30223;17.182;-96.766;2023-07-13T03:53:42;24.60;59.70
44517;DHT22;30223;17.182;-96.766;2023-07-13T03:56:09;24.60;59.80
44517;DHT22;30223;17.182;-96.766;2023-07-13T03:58:39;24.50;60.00
44517;DHT22;30223;17.182;-96.766;2023-07-13T04:01:08;24.50;60.00
44517;DHT22;30223;17.182;-96.766;2023-07-13T04:03:35;24.50;60.00
44517;DHT22;30223;17.182;-96.766;2023-07-13T04:06:04;24.50;60.10
44517;DHT22;30223;17.182;-96.766;2023-07-13T04:08:33;24.50;60.10
44517;DHT22;30223;17.182;-96.766;2023-07-13T04:11:01;24.50;60.20
44517;DHT22;30223;17.182;-96.766;2023-07-13T04:13:29;24.50;60.20
44517;DHT22;30223;17.182;-96.766;2023-07-13T04:15:56;24.50;60.30
44517;DHT22;30223;17.182;-96.766;2023-07-13T04:18:23;24.50;60.30
44517;DHT22;30223;17.182;-96.766;2023-07-13T04:20:50;24.50;60.30
44517;DHT22;30223;17.182;-96.766;2023-07-13T04:23:18;24.50;60.10
44517;DHT22;30223;17.182;-96.766;2023-07-13T04:25:51;24.40;59.90
44517;DHT22;30223;17.182;-96.766;2023-07-13T04:28:22;24.40;59.90
44517;DHT22;30223;17.182;-96.766;2023-07-13T04:30:51;24.40;59.70
44517;DHT22;30223;17.182;-96.766;2023-07-13T04:33:18;24.40;59.60
44517;DHT22;30223;17.182;-96.766;2023-07-13T04:35:53;24.40;59.60
44517;DHT22;30223;17.182;-96.766;2023-07-13T04:38:25;24.40;59.90
44517;DHT22;30223;17.182;-96.766;2023-07-13T04:40:55;24.30;59.80
44517;DHT22;30223;17.182;-96.766;2023-07-13T04:43:23;24.30;58.90
44517;DHT22;30223;17.182;-96.766;2023-07-13T04:45:51;24.30;59.00
44517;DHT22;30223;17.182;-96.766;2023-07-13T04:48:18;24.30;58.70
44517;DHT22;30223;17.182;-96.766;2023-07-13T04:50:45;24.30;59.20
44517;DHT22;30223;17.182;-96.766;2023-07-13T04:53:13;24.30;59.20
44517;DHT22;30223;17.182;-96.766;2023-07-13T04:55:40;24.30;59.60
44517;DHT22;30223;17.182;-96.766;2023-07-13T04:58:07;24.40;59.50
44517;DHT22;30223;17.182;-96.766;2023-07-13T05:00:33;24.40;59.70
44517;DHT22;30223;17.182;-96.766;2023-07-13T05:03:11;24.40;60.00
44517;DHT22;30223;17.182;-96.766;2023-07-13T05:05:38;24.40;59.70
44517;DHT22;30223;17.182;-96.766;2023-07-13T05:08:05;24.50;59.80
44517;DHT22;30223;17.182;-96.766;2023-07-13T05:10:34;24.50;59.80
44517;DHT22;30223;17.182;-96.766;2023-07-13T05:13:01;24.50;59.70
44517;DHT22;30223;17.182;-96.766;2023-07-13T05:15:28;24.50;59.70
44517;DHT22;30223;17.182;-96.766;2023-07-13T05:17:54;24.50;59.40
44517;DHT22;30223;17.182;-96.766;2023-07-13T05:20:21;24.50;59.80
44517;DHT22;30223;17.182;-96.766;2023-07-13T05:22:48;24.40;58.70
44517;DHT22;30223;17.182;-96.766;2023-07-13T05:25:15;24.30;58.30
44517;DHT22;30223;17.182;-96.766;2023-07-13T05:27:42;24.30;58.00
44517;DHT22;30223;17.182;-96.766;2023-07-13T05:30:11;24.20;58.50
44517;DHT22;30223;17.182;-96.766;2023-07-13T05:32:38;24.20;59.10
44517;DHT22;30223;17.182;-96.766;2023-07-13T05:35:05;24.20;59.30
44517;DHT22;30223;17.182;-96.766;2023-07-13T05:37:32;24.20;58.90
44517;DHT22;30223;17.182;-96.766;2023-07-13T05:39:59;24.20;58.70
44517;DHT22;30223;17.182;-96.766;2023-07-13T05:42:26;24.20;59.00
44517;DHT22;30223;17.182;-96.766;2023-07-13T05:44:53;24.20;59.20
44517;DHT22;30223;17.182;-96.766;2023-07-13T05:47:20;24.10;59.10
44517;DHT22;30223;17.182;-96.766;2023-07-13T05:49:46;24.20;59.40
44517;DHT22;30223;17.182;-96.766;2023-07-13T05:52:13;24.20;59.30
44517;DHT22;30223;17.182;-96.766;2023-07-13T05:54:40;24.10;59.30
44517;DHT22;30223;17.182;-96.766;2023-07-13T05:57:07;24.10;59.20
44517;DHT22;30223;17.182;-96.766;2023-07-13T05:59:33;24.10;59.20
44517;DHT22;30223;17.182;-96.766;2023-07-13T06:02:00;24.10;59.80
44517;DHT22;30223;17.182;-96.766;2023-07-13T06:04:27;24.10;59.60
44517;DHT22;30223;17.182;-96.766;2023-07-13T06:06:54;24.10;59.00
44517;DHT22;30223;17.182;-96.766;2023-07-13T06:09:21;24.00;59.00
44517;DHT22;30223;17.182;-96.766;2023-07-13T06:11:47;24.00;59.20
44517;DHT22;30223;17.182;-96.766;2023-07-13T06:14:14;24.00;59.40
44517;DHT22;30223;17.182;-96.766;2023-07-13T06:16:41;24.00;59.40
44517;DHT22;30223;17.182;-96.766;2023-07-13T06:19:08;24.00;59.30
44517;DHT22;30223;17.182;-96.766;2023-07-13T06:21:34;24.00;59.30
44517;DHT22;30223;17.182;-96.766;2023-07-13T06:24:01;24.00;59.10
44517;DHT22;30223;17.182;-96.766;2023-07-13T06:26:28;23.90;59.20
44517;DHT22;30223;17.182;-96.766;2023-07-13T06:28:55;23.90;58.80
44517;DHT22;30223;17.182;-96.766;2023-07-13T06:31:22;23.90;58.80
44517;DHT22;30223;17.182;-96.766;2023-07-13T06:33:49;23.90;58.90
44517;DHT22;30223;17.182;-96.766;2023-07-13T06:36:16;23.90;59.10
44517;DHT22;30223;17.182;-96.766;2023-07-13T06:38:42;23.90;59.30
44517;DHT22;30223;17.182;-96.766;2023-07-13T06:41:09;23.90;59.50
44517;DHT22;30223;17.182;-96.766;2023-07-13T06:43:36;23.90;60.20
44517;DHT22;30223;17.182;-96.766;2023-07-13T06:46:03;23.90;60.00
44517;DHT22;30223;17.182;-96.766;2023-07-13T06:48:30;23.90;60.00
44517;DHT22;30223;17.182;-96.766;2023-07-13T06:50:57;23.90;60.30
44517;DHT22;30223;17.182;-96.766;2023-07-13T06:53:29;23.90;60.60
44517;DHT22;30223;17.182;-96.766;2023-07-13T06:55:56;23.90;60.70
44517;DHT22;30223;17.182;-96.766;2023-07-13T06:58:23;23.90;60.70
44517;DHT22;30223;17.182;-96.766;2023-07-13T07:00:53;23.80;61.40
44517;DHT22;30223;17.182;-96.766;2023-07-13T07:03:20;23.80;60.80
44517;DHT22;30223;17.182;-96.766;2023-07-13T07:05:46;23.80;60.90
44517;DHT22;30223;17.182;-96.766;2023-07-13T07:08:13;23.80;61.00
44517;DHT22;30223;17.182;-96.766;2023-07-13T07:10:41;23.80;61.10
44517;DHT22;30223;17.182;-96.766;2023-07-13T07:13:08;23.80;61.10
44517;DHT22;30223;17.182;-96.766;2023-07-13T07:15:36;23.80;61.20
44517;DHT22;30223;17.182;-96.766;2023-07-13T07:18:02;23.80;61.20
44517;DHT22;30223;17.182;-96.766;2023-07-13T07:20:29;23.80;61.30
44517;DHT22;30223;17.182;-96.766;2023-07-13T07:22:56;23.80;61.40
44517;DHT22;30223;17.182;-96.766;2023-07-13T07:25:23;23.80;61.40
44517;DHT22;30223;17.182;-96.766;2023-07-13T07:27:50;23.70;61.40
44517;DHT22;30223;17.182;-96.766;2023-07-13T07:30:17;23.70;61.50
44517;DHT22;30223;17.182;-96.766;2023-07-13T07:32:43;23.70;61.60
44517;DHT22;30223;17.182;-96.766;2023-07-13T07:35:10;23.70;61.60
44517;DHT22;30223;17.182;-96.766;2023-07-13T07:37:37;23.70;61.60
44517;DHT22;30223;17.182;-96.766;2023-07-13T07:40:04;23.70;61.70
44517;DHT22;30223;17.182;-96.766;2023-07-13T07:42:31;23.70;61.70
44517;DHT22;30223;17.182;-96.766;2023-07-13T07:44:58;23.70;61.80
44517;DHT22;30223;17.182;-96.766;2023-07-13T07:47:24;23.70;61.80
44517;DHT22;30223;17.182;-96.766;2023-07-13T07:49:51;23.60;61.90
44517;DHT22;30223;17.182;-96.766;2023-07-13T07:52:18;23.70;61.90
44517;DHT22;30223;17.182;-96.766;2023-07-13T07:54:45;23.70;62.00
44517;DHT22;30223;17.182;-96.766;2023-07-13T07:57:12;23.70;62.00
44517;DHT22;30223;17.182;-96.766;2023-07-13T07:59:39;23.60;62.00
44517;DHT22;30223;17.182;-96.766;2023-07-13T08:02:06;23.60;62.10
44517;DHT22;30223;17.182;-96.766;2023-07-13T08:04:33;23.60;62.10
44517;DHT22;30223;17.182;-96.766;2023-07-13T08:06:59;23.60;62.20
44517;DHT22;30223;17.182;-96.766;2023-07-13T08:09:29;23.50;62.20
44517;DHT22;30223;17.182;-96.766;2023-07-13T08:11:56;23.50;62.20
44517;DHT22;30223;17.182;-96.766;2023-07-13T08:14:22;23.50;62.20
44517;DHT22;30223;17.182;-96.766;2023-07-13T08:16:49;23.50;62.20
44517;DHT22;30223;17.182;-96.766;2023-07-13T08:19:16;23.50;62.20
44517;DHT22;30223;17.182;-96.766;2023-07-13T08:21:43;23.50;62.20
44517;DHT22;30223;17.182;-96.766;2023-07-13T08:24:10;23.50;62.30
44517;DHT22;30223;17.182;-96.766;2023-07-13T08:26:36;23.50;62.20
44517;DHT22;30223;17.182;-96.766;2023-07-13T08:29:03;23.50;62.30
44517;DHT22;30223;17.182;-96.766;2023-07-13T08:31:30;23.50;62.30
44517;DHT22;30223;17.182;-96.766;2023-07-13T08:33:57;23.50;62.40
44517;DHT22;30223;17.182;-96.766;2023-07-13T08:36:25;23.50;62.40
44517;DHT22;30223;17.182;-96.766;2023-07-13T08:38:53;23.50;62.40
44517;DHT22;30223;17.182;-96.766;2023-07-13T08:41:21;23.40;62.40
44517;DHT22;30223;17.182;-96.766;2023-07-13T08:43:56;23.40;62.40
44517;DHT22;30223;17.182;-96.766;2023-07-13T08:46:32;23.40;62.50
44517;DHT22;30223;17.182;-96.766;2023-07-13T08:49:12;23.40;62.40
44517;DHT22;30223;17.182;-96.766;2023-07-13T08:54:26;23.40;62.50
44517;DHT22;30223;17.182;-96.766;2023-07-13T08:56:56;23.40;62.50
44517;DHT22;30223;17.182;-96.766;2023-07-13T08:59:27;23.40;62.60
44517;DHT22;30223;17.182;-96.766;2023-07-13T09:04:28;23.30;62.70
44517;DHT22;30223;17.182;-96.766;2023-07-13T09:07:09;23.30;62.60
44517;DHT22;30223;17.182;-96.766;2023-07-13T09:09:45;23.30;62.60
44517;DHT22;30223;17.182;-96.766;2023-07-13T09:12:36;23.30;62.70
44517;DHT22;30223;17.182;-96.766;2023-07-13T09:15:21;23.30;63.30
44517;DHT22;30223;17.182;-96.766;2023-07-13T09:17:51;23.30;62.70
44517;DHT22;30223;17.182;-96.766;2023-07-13T09:20:28;23.30;62.80
44517;DHT22;30223;17.182;-96.766;2023-07-13T09:22:59;23.30;62.80
44517;DHT22;30223;17.182;-96.766;2023-07-13T09:25:35;23.30;62.70
44517;DHT22;30223;17.182;-96.766;2023-07-13T09:30:51;23.20;62.80
44517;DHT22;30223;17.182;-96.766;2023-07-13T09:33:20;23.20;62.70
44517;DHT22;30223;17.182;-96.766;2023-07-13T09:35:47;23.20;62.80
44517;DHT22;30223;17.182;-96.766;2023-07-13T09:38:18;23.20;62.90
44517;DHT22;30223;17.182;-96.766;2023-07-13T09:41:08;23.20;62.80
44517;DHT22;30223;17.182;-96.766;2023-07-13T09:44:11;23.20;62.90
44517;DHT22;30223;17.182;-96.766;2023-07-13T09:46:54;23.10;62.80
44517;DHT22;30223;17.182;-96.766;2023-07-13T09:49:34;23.20;63.00
44517;DHT22;30223;17.182;-96.766;2023-07-13T09:52:05;23.20;62.90
44517;DHT22;30223;17.182;-96.766;2023-07-13T09:54:36;23.20;63.00
44517;DHT22;30223;17.182;-96.766;2023-07-13T09:57:12;23.10;62.90
44517;DHT22;30223;17.182;-96.766;2023-07-13T09:59:45;23.10;63.00
44517;DHT22;30223;17.182;-96.766;2023-07-13T10:02:33;23.10;63.60
44517;DHT22;30223;17.182;-96.766;2023-07-13T10:05:04;23.10;63.00
44517;DHT22;30223;17.182;-96.766;2023-07-13T10:07:35;23.10;63.10
44517;DHT22;30223;17.182;-96.766;2023-07-13T10:10:14;23.10;63.10
44517;DHT22;30223;17.182;-96.766;2023-07-13T10:12:41;23.00;63.10
44517;DHT22;30223;17.182;-96.766;2023-07-13T10:15:23;23.00;63.10
44517;DHT22;30223;17.182;-96.766;2023-07-13T10:17:52;23.00;63.20
44517;DHT22;30223;17.182;-96.766;2023-07-13T10:20:21;23.00;63.20
44517;DHT22;30223;17.182;-96.766;2023-07-13T10:22:53;23.00;63.20
44517;DHT22;30223;17.182;-96.766;2023-07-13T10:25:24;23.00;63.20
44517;DHT22;30223;17.182;-96.766;2023-07-13T10:27:54;23.00;63.30
44517;DHT22;30223;17.182;-96.766;2023-07-13T10:30:33;22.90;63.20
44517;DHT22;30223;17.182;-96.766;2023-07-13T10:33:08;23.00;63.30
44517;DHT22;30223;17.182;-96.766;2023-07-13T10:35:37;22.90;63.30
44517;DHT22;30223;17.182;-96.766;2023-07-13T10:38:10;22.90;63.30
44517;DHT22;30223;17.182;-96.766;2023-07-13T10:40:40;22.90;63.30
44517;DHT22;30223;17.182;-96.766;2023-07-13T10:43:30;22.90;63.40
44517;DHT22;30223;17.182;-96.766;2023-07-13T10:46:00;22.90;63.40
44517;DHT22;30223;17.182;-96.766;2023-07-13T10:48:28;22.90;63.40
44517;DHT22;30223;17.182;-96.766;2023-07-13T10:50:56;22.80;63.40
44517;DHT22;30223;17.182;-96.766;2023-07-13T10:53:31;22.90;63.40
44517;DHT22;30223;17.182;-96.766;2023-07-13T10:56:05;22.80;63.40
44517;DHT22;30223;17.182;-96.766;2023-07-13T10:58:41;22.80;63.40
44517;DHT22;30223;17.182;-96.766;2023-07-13T11:01:13;22.80;63.40
44517;DHT22;30223;17.182;-96.766;2023-07-13T11:06:17;22.80;63.50
44517;DHT22;30223;17.182;-96.766;2023-07-13T11:09:19;22.70;63.50
44517;DHT22;30223;17.182;-96.766;2023-07-13T11:11:46;22.70;63.50
44517;DHT22;30223;17.182;-96.766;2023-07-13T11:14:36;22.70;63.60
44517;DHT22;30223;17.182;-96.766;2023-07-13T11:17:35;22.70;63.60
44517;DHT22;30223;17.182;-96.766;2023-07-13T11:30:38;22.60;63.70
44517;DHT22;30223;17.182;-96.766;2023-07-13T11:35:58;22.60;63.70
44517;DHT22;30223;17.182;-96.766;2023-07-13T11:41:05;22.50;63.70
44517;DHT22;30223;17.182;-96.766;2023-07-13T11:43:34;22.50;63.70
44517;DHT22;30223;17.182;-96.766;2023-07-13T11:48:47;22.50;63.70
44517;DHT22;30223;17.182;-96.766;2023-07-13T11:51:28;22.50;63.70
44517;DHT22;30223;17.182;-96.766;2023-07-13T11:54:04;22.50;63.70
44517;DHT22;30223;17.182;-96.766;2023-07-13T11:56:31;22.50;63.80
44517;DHT22;30223;17.182;-96.766;2023-07-13T11:59:06;22.50;63.80
44517;DHT22;30223;17.182;-96.766;2023-07-13T12:01:35;22.50;63.80
44517;DHT22;30223;17.182;-96.766;2023-07-13T12:04:05;22.50;63.80
44517;DHT22;30223;17.182;-96.766;2023-07-13T12:06:35;22.40;63.80
44517;DHT22;30223;17.182;-96.766;2023-07-13T12:09:14;22.40;63.80
44517;DHT22;30223;17.182;-96.766;2023-07-13T12:11:44;22.40;63.80
44517;DHT22;30223;17.182;-96.766;2023-07-13T12:14:18;22.40;63.80
44517;DHT22;30223;17.182;-96.766;2023-07-13T12:16:47;22.40;63.80
44517;DHT22;30223;17.182;-96.766;2023-07-13T12:19:26;22.40;63.90
44517;DHT22;30223;17.182;-96.766;2023-07-13T12:21:57;22.40;63.80
44517;DHT22;30223;17.182;-96.766;2023-07-13T12:24:26;22.40;63.90
44517;DHT22;30223;17.182;-96.766;2023-07-13T12:27:03;22.40;63.90
44517;DHT22;30223;17.182;-96.766;2023-07-13T12:29:32;22.30;63.80
44517;DHT22;30223;17.182;-96.766;2023-07-13T12:31:59;22.30;63.90
44517;DHT22;30223;17.182;-96.766;2023-07-13T12:34:27;22.30;63.90
44517;DHT22;30223;17.182;-96.766;2023-07-13T12:36:55;22.30;63.90
44517;DHT22;30223;17.182;-96.766;2023-07-13T12:39:28;22.30;63.90
44517;DHT22;30223;17.182;-96.766;2023-07-13T12:42:28;22.30;64.00
44517;DHT22;30223;17.182;-96.766;2023-07-13T12:45:30;22.30;63.90
44517;DHT22;30223;17.182;-96.766;2023-07-13T12:47:58;22.30;64.00
44517;DHT22;30223;17.182;-96.766;2023-07-13T12:50:40;22.20;63.90
44517;DHT22;30223;17.182;-96.766;2023-07-13T12:53:13;22.20;64.00
44517;DHT22;30223;17.182;-96.766;2023-07-13T12:55:46;22.20;64.00
44517;DHT22;30223;17.182;-96.766;2023-07-13T13:00:56;22.20;64.00
44517;DHT22;30223;17.182;-96.766;2023-07-13T13:03:35;22.20;64.00
44517;DHT22;30223;17.182;-96.766;2023-07-13T13:06:07;22.20;64.10
44517;DHT22;30223;17.182;-96.766;2023-07-13T13:08:48;22.20;64.00
44517;DHT22;30223;17.182;-96.766;2023-07-13T13:11:16;22.20;64.10
44517;DHT22;30223;17.182;-96.766;2023-07-13T13:13:43;22.10;64.00
44517;DHT22;30223;17.182;-96.766;2023-07-13T13:16:32;22.10;64.10
44517;DHT22;30223;17.182;-96.766;2023-07-13T13:19:14;22.10;64.00
44517;DHT22;30223;17.182;-96.766;2023-07-13T13:21:43;22.10;64.10
44517;DHT22;30223;17.182;-96.766;2023-07-13T13:24:22;22.10;64.10
44517;DHT22;30223;17.182;-96.766;2023-07-13T13:26:51;22.10;64.10
44517;DHT22;30223;17.182;-96.766;2023-07-13T13:29:20;22.10;64.10
44517;DHT22;30223;17.182;-96.766;2023-07-13T13:31:48;22.10;64.10
44517;DHT22;30223;17.182;-96.766;2023-07-13T13:34:17;22.10;64.10
44517;DHT22;30223;17.182;-96.766;2023-07-13T13:36:46;22.10;64.10
44517;DHT22;30223;17.182;-96.766;2023-07-13T13:39:37;22.10;64.10
44517;DHT22;30223;17.182;-96.766;2023-07-13T13:42:05;22.10;64.10
44517;DHT22;30223;17.182;-96.766;2023-07-13T13:44:31;22.10;64.10
44517;DHT22;30223;17.182;-96.766;2023-07-13T13:46:58;22.10;64.10
44517;DHT22;30223;17.182;-96.766;2023-07-13T13:49:27;22.10;64.10
44517;DHT22;30223;17.182;-96.766;2023-07-13T13:51:54;22.10;64.10
44517;DHT22;30223;17.182;-96.766;2023-07-13T13:54:23;22.10;64.20
44517;DHT22;30223;17.182;-96.766;2023-07-13T13:56:52;22.00;64.20
44517;DHT22;30223;17.182;-96.766;2023-07-13T13:59:19;22.10;64.20
44517;DHT22;30223;17.182;-96.766;2023-07-13T14:01:47;22.10;64.20
44517;DHT22;30223;17.182;-96.766;2023-07-13T14:04:21;22.10;64.20
44517;DHT22;30223;17.182;-96.766;2023-07-13T14:06:49;22.10;64.20
44517;DHT22;30223;17.182;-96.766;2023-07-13T14:09:19;22.10;64.20
44517;DHT22;30223;17.182;-96.766;2023-07-13T14:11:49;22.00;64.20
44517;DHT22;30223;17.182;-96.766;2023-07-13T14:14:22;22.10;64.20
44517;DHT22;30223;17.182;-96.766;2023-07-13T14:16:49;22.10;64.30
44517;DHT22;30223;17.182;-96.766;2023-07-13T14:19:21;22.10;64.20
44517;DHT22;30223;17.182;-96.766;2023-07-13T14:21:47;22.10;64.40
44517;DHT22;30223;17.182;-96.766;2023-07-13T14:24:15;22.10;64.40
44517;DHT22;30223;17.182;-96.766;2023-07-13T14:26:42;22.10;64.40
44517;DHT22;30223;17.182;-96.766;2023-07-13T14:29:14;22.00;64.40
44517;DHT22;30223;17.182;-96.766;2023-07-13T14:31:42;22.10;64.40
44517;DHT22;30223;17.182;-96.766;2023-07-13T14:34:13;22.10;64.40
44517;DHT22;30223;17.182;-96.766;2023-07-13T14:36:43;22.10;64.40
44517;DHT22;30223;17.182;-96.766;2023-07-13T14:39:19;22.10;64.40
44517;DHT22;30223;17.182;-96.766;2023-07-13T14:41:49;22.10;64.50
44517;DHT22;30223;17.182;-96.766;2023-07-13T14:44:18;22.10;64.40
44517;DHT22;30223;17.182;-96.766;2023-07-13T14:46:46;22.10;64.50
44517;DHT22;30223;17.182;-96.766;2023-07-13T14:49:41;22.10;64.60
44517;DHT22;30223;17.182;-96.766;2023-07-13T14:52:13;22.00;64.50
44517;DHT22;30223;17.182;-96.766;2023-07-13T14:54:40;22.10;64.60
44517;DHT22;30223;17.182;-96.766;2023-07-13T14:57:19;22.00;64.60
44517;DHT22;30223;17.182;-96.766;2023-07-13T14:59:47;22.00;64.50
44517;DHT22;30223;17.182;-96.766;2023-07-13T15:02:28;22.10;64.60
44517;DHT22;30223;17.182;-96.766;2023-07-13T15:04:56;22.10;64.70
44517;DHT22;30223;17.182;-96.766;2023-07-13T15:07:23;22.10;64.70
44517;DHT22;30223;17.182;-96.766;2023-07-13T15:09:50;22.10;64.70
44517;DHT22;30223;17.182;-96.766;2023-07-13T15:12:18;22.10;64.70
44517;DHT22;30223;17.182;-96.766;2023-07-13T15:14:45;22.10;64.80
44517;DHT22;30223;17.182;-96.766;2023-07-13T15:17:38;22.10;64.80
44517;DHT22;30223;17.182;-96.766;2023-07-13T15:20:30;22.10;64.90
44517;DHT22;30223;17.182;-96.766;2023-07-13T15:22:58;22.10;65.00
44517;DHT22;30223;17.182;-96.766;2023-07-13T15:25:27;22.00;65.00
44517;DHT22;30223;17.182;-96.766;2023-07-13T15:27:55;22.10;65.10
44517;DHT22;30223;17.182;-96.766;2023-07-13T15:30:24;22.10;65.10
44517;DHT22;30223;17.182;-96.766;2023-07-13T15:32:51;22.10;65.10
44517;DHT22;30223;17.182;-96.766;2023-07-13T15:35:22;22.10;65.20
44517;DHT22;30223;17.182;-96.766;2023-07-13T15:37:49;22.10;65.20
44517;DHT22;30223;17.182;-96.766;2023-07-13T15:40:16;22.10;65.30
44517;DHT22;30223;17.182;-96.766;2023-07-13T15:42:44;22.10;65.20
44517;DHT22;30223;17.182;-96.766;2023-07-13T15:45:22;22.10;65.20
44517;DHT22;30223;17.182;-96.766;2023-07-13T15:47:50;22.10;65.30
44517;DHT22;30223;17.182;-96.766;2023-07-13T15:50:19;22.10;65.30
44517;DHT22;30223;17.182;-96.766;2023-07-13T15:52:52;22.20;65.30
44517;DHT22;30223;17.182;-96.766;2023-07-13T15:55:19;22.20;65.20